createdAt,value
2017-12-30T00:00:15.235Z,1.70
2017-12-30T00:02:41.566Z,1.70
2017-12-30T00:05:07.935Z,1.80
2017-12-30T00:07:35.054Z,1.80
2017-12-30T00:10:01.466Z,1.80
2017-12-30T00:12:27.839Z,1.90
2017-12-30T00:14:54.246Z,1.80
2017-12-30T00:17:20.698Z,1.90
2017-12-30T00:19:47.062Z,1.90
2017-12-30T00:22:14.146Z,2.00
2017-12-30T00:24:40.522Z,2.00
2017-12-30T00:27:06.838Z,2.00
2017-12-30T00:29:34.249Z,1.90
2017-12-30T00:32:00.597Z,1.90
2017-12-30T00:34:26.942Z,2.00
2017-12-30T00:36:53.321Z,2.00
2017-12-30T00:39:19.682Z,2.00
2017-12-30T00:41:46.067Z,2.10
2017-12-30T00:44:12.402Z,2.10
2017-12-30T00:46:38.782Z,2.10
2017-12-30T00:49:05.133Z,2.10
2017-12-30T00:51:31.477Z,2.10
2017-12-30T00:53:58.759Z,2.10
2017-12-30T00:56:25.876Z,2.10
2017-12-30T00:58:52.197Z,2.10
2017-12-30T01:01:18.551Z,2.10
2017-12-30T01:03:44.886Z,2.20
2017-12-30T01:06:11.526Z,2.10
2017-12-30T01:08:37.855Z,2.20
2017-12-30T01:11:04.190Z,2.10
2017-12-30T01:13:30.550Z,2.20
2017-12-30T01:15:57.650Z,2.10
2017-12-30T01:18:24.005Z,2.10
2017-12-30T01:20:50.353Z,2.20
2017-12-30T01:23:18.459Z,2.30
2017-12-30T01:25:44.830Z,2.20
2017-12-30T01:28:11.171Z,2.30
2017-12-30T01:30:37.582Z,2.30
2017-12-30T01:33:03.935Z,2.30
2017-12-30T01:35:30.286Z,2.40
2017-12-30T01:37:57.381Z,2.40
2017-12-30T01:40:23.731Z,2.30
2017-12-30T01:42:50.107Z,2.40
2017-12-30T01:45:17.206Z,2.30
2017-12-30T01:47:43.646Z,2.30
2017-12-30T01:50:10.009Z,2.50
2017-12-30T01:52:36.346Z,2.40
2017-12-30T01:55:03.473Z,2.40
2017-12-30T01:57:29.829Z,2.40
2017-12-30T01:59:56.947Z,2.30
2017-12-30T02:02:23.331Z,2.30
2017-12-30T02:04:49.675Z,2.40
2017-12-30T02:07:16.030Z,2.30
2017-12-30T02:09:42.406Z,2.40
2017-12-30T02:12:09.510Z,2.40
2017-12-30T02:14:36.194Z,2.40
2017-12-30T02:17:03.287Z,2.50
2017-12-30T02:19:29.666Z,2.40
2017-12-30T02:21:56.021Z,2.40
2017-12-30T02:24:23.122Z,2.40
2017-12-30T02:26:50.234Z,2.30
2017-12-30T02:29:16.566Z,2.40
2017-12-30T02:31:42.929Z,2.40
2017-12-30T02:34:10.332Z,2.40
2017-12-30T02:36:37.414Z,2.40
2017-12-30T02:39:03.782Z,2.40
2017-12-30T02:41:30.110Z,2.40
2017-12-30T02:43:56.506Z,2.40
2017-12-30T02:46:22.878Z,2.50
2017-12-30T02:48:49.228Z,2.40
2017-12-30T02:51:16.552Z,2.40
2017-12-30T02:53:42.980Z,2.40
2017-12-30T02:56:09.326Z,2.40
2017-12-30T02:58:35.662Z,2.50
2017-12-30T03:01:01.998Z,2.50
2017-12-30T03:03:28.318Z,2.30
2017-12-30T03:05:54.666Z,2.30
2017-12-30T03:08:21.023Z,2.20
2017-12-30T03:10:48.106Z,2.20
2017-12-30T03:13:14.450Z,2.20
2017-12-30T03:15:41.526Z,2.10
2017-12-30T03:18:07.881Z,2.00
2017-12-30T03:20:34.984Z,2.00
2017-12-30T03:23:02.070Z,1.90
2017-12-30T03:25:28.386Z,1.90
2017-12-30T03:27:54.753Z,1.90
2017-12-30T03:30:21.819Z,2.00
2017-12-30T03:32:48.179Z,1.90
2017-12-30T03:35:14.557Z,1.90
2017-12-30T03:37:41.634Z,1.80
2017-12-30T03:40:08.014Z,1.80
2017-12-30T03:42:34.517Z,1.70
2017-12-30T03:45:03.052Z,1.60
2017-12-30T03:47:30.264Z,1.60
2017-12-30T03:49:56.614Z,1.60
2017-12-30T03:52:22.950Z,1.60
2017-12-30T03:54:49.321Z,1.50
2017-12-30T03:57:16.415Z,1.40
2017-12-30T03:59:42.750Z,1.40
2017-12-30T04:02:09.094Z,1.50
2017-12-30T04:04:35.405Z,1.50
2017-12-30T04:07:01.833Z,1.50
2017-12-30T04:09:28.178Z,1.50
2017-12-30T04:11:55.507Z,1.50
2017-12-30T04:14:21.833Z,1.50
2017-12-30T04:16:48.174Z,1.60
2017-12-30T04:19:14.513Z,1.50
2017-12-30T04:21:40.854Z,1.60
2017-12-30T04:24:07.218Z,1.60
2017-12-30T04:26:33.595Z,1.60
2017-12-30T04:28:59.903Z,1.60
2017-12-30T04:31:26.967Z,1.60
2017-12-30T04:33:53.297Z,1.50
2017-12-30T04:36:19.654Z,1.70
2017-12-30T04:38:45.978Z,1.70
2017-12-30T04:41:12.303Z,1.80
2017-12-30T04:43:38.629Z,1.80
2017-12-30T04:46:06.657Z,1.90
2017-12-30T04:48:33.741Z,1.80
2017-12-30T04:51:00.098Z,1.80
2017-12-30T04:53:27.449Z,1.80
2017-12-30T04:55:53.768Z,2.00
2017-12-30T04:58:20.141Z,2.00
2017-12-30T05:00:46.490Z,2.10
2017-12-30T05:03:12.865Z,2.10
2017-12-30T05:05:39.194Z,2.10
2017-12-30T05:08:05.532Z,2.20
2017-12-30T05:10:32.605Z,2.40
2017-12-30T05:12:58.926Z,2.30
2017-12-30T05:15:25.260Z,2.40
2017-12-30T05:17:51.583Z,2.40
2017-12-30T05:20:17.934Z,2.40
2017-12-30T05:22:44.293Z,2.30
2017-12-30T05:25:10.613Z,2.30
2017-12-30T05:27:36.937Z,2.10
2017-12-30T05:30:03.273Z,2.10
2017-12-30T05:32:29.646Z,1.90
2017-12-30T05:34:55.983Z,1.90
2017-12-30T05:37:22.342Z,1.80
2017-12-30T05:39:48.670Z,1.70
2017-12-30T05:42:15.058Z,1.70
2017-12-30T05:44:41.392Z,1.70
2017-12-30T05:47:08.454Z,1.70
2017-12-30T05:49:35.523Z,1.80
2017-12-30T05:52:01.982Z,1.70
2017-12-30T05:54:28.306Z,1.80
2017-12-30T05:56:54.630Z,1.80
2017-12-30T05:59:20.992Z,1.60
2017-12-30T06:01:47.353Z,1.60
2017-12-30T06:04:15.218Z,1.50
2017-12-30T06:06:42.618Z,1.40
2017-12-30T06:09:08.958Z,1.40
2017-12-30T06:11:35.301Z,1.40
2017-12-30T06:14:01.649Z,1.40
2017-12-30T06:16:27.966Z,1.40
2017-12-30T06:18:54.408Z,1.30
2017-12-30T06:21:20.778Z,1.30
2017-12-30T06:23:47.838Z,1.30
2017-12-30T06:26:14.190Z,1.30
2017-12-30T06:28:40.558Z,1.40
2017-12-30T06:31:06.906Z,1.40
2017-12-30T06:33:33.238Z,1.40
2017-12-30T06:36:00.322Z,1.50
2017-12-30T06:38:26.690Z,1.50
2017-12-30T06:40:53.022Z,1.60
2017-12-30T06:43:19.358Z,1.60
2017-12-30T06:45:45.722Z,1.70
2017-12-30T06:48:12.918Z,1.50
2017-12-30T06:50:39.284Z,1.50
2017-12-30T06:53:05.641Z,1.50
2017-12-30T06:55:32.011Z,1.50
2017-12-30T06:57:58.373Z,1.50
2017-12-30T07:00:24.709Z,1.40
2017-12-30T07:02:51.061Z,1.40
2017-12-30T07:05:18.172Z,1.40
2017-12-30T07:07:44.542Z,1.40
2017-12-30T07:10:11.687Z,1.40
2017-12-30T07:12:38.030Z,1.30
2017-12-30T07:15:05.175Z,1.40
2017-12-30T07:17:31.580Z,1.30
2017-12-30T07:19:57.909Z,1.30
2017-12-30T07:22:24.250Z,1.30
2017-12-30T07:24:50.582Z,1.40
2017-12-30T07:27:16.950Z,1.50
2017-12-30T07:29:44.575Z,1.70
2017-12-30T07:32:10.946Z,1.60
2017-12-30T07:34:38.010Z,1.80
2017-12-30T07:37:04.329Z,1.80
2017-12-30T07:39:31.435Z,1.90
2017-12-30T07:41:57.765Z,1.90
2017-12-30T07:44:24.098Z,1.90
2017-12-30T07:46:50.422Z,1.80
2017-12-30T07:49:16.761Z,1.70
2017-12-30T07:51:43.115Z,1.70
2017-12-30T07:54:09.595Z,1.60
2017-12-30T07:56:35.930Z,1.50
2017-12-30T07:59:02.873Z,1.60
2017-12-30T08:01:29.210Z,1.60
2017-12-30T08:03:55.598Z,1.70
2017-12-30T08:06:22.677Z,1.80
2017-12-30T08:08:49.022Z,1.80
2017-12-30T08:11:15.343Z,2.00
2017-12-30T08:13:41.714Z,2.20
2017-12-30T08:16:08.046Z,2.30
2017-12-30T08:18:34.377Z,2.50
2017-12-30T08:21:00.733Z,2.60
2017-12-30T08:23:27.070Z,2.60
2017-12-30T08:25:54.148Z,2.60
2017-12-30T08:28:20.511Z,2.60
2017-12-30T08:30:46.855Z,2.40
2017-12-30T08:33:13.211Z,2.50
2017-12-30T08:35:39.541Z,2.50
2017-12-30T08:38:05.915Z,2.50
2017-12-30T08:40:32.278Z,2.50
2017-12-30T08:42:58.632Z,2.50
2017-12-30T08:45:24.987Z,2.40
2017-12-30T08:47:52.102Z,2.40
2017-12-30T08:50:18.454Z,2.40
2017-12-30T08:52:44.918Z,2.40
2017-12-30T08:55:11.306Z,2.40
2017-12-30T08:57:37.656Z,2.50
2017-12-30T09:00:04.734Z,2.70
2017-12-30T09:02:31.081Z,2.80
2017-12-30T09:04:57.412Z,2.90
2017-12-30T09:07:23.775Z,3.00
2017-12-30T09:09:50.850Z,3.30
2017-12-30T09:12:17.950Z,3.40
2017-12-30T09:14:44.298Z,3.40
2017-12-30T09:17:10.630Z,3.40
2017-12-30T09:19:36.954Z,3.40
2017-12-30T09:22:03.292Z,3.40
2017-12-30T09:24:30.850Z,3.40
2017-12-30T09:26:57.173Z,3.30
2017-12-30T09:29:23.502Z,3.30
2017-12-30T09:31:49.846Z,3.30
2017-12-30T09:34:16.234Z,3.40
2017-12-30T09:36:42.613Z,3.40
2017-12-30T09:39:08.955Z,3.40
2017-12-30T09:41:35.335Z,3.30
2017-12-30T09:44:01.699Z,3.40
2017-12-30T09:46:28.054Z,3.50
2017-12-30T09:48:54.378Z,3.60
2017-12-30T09:51:20.710Z,3.50
2017-12-30T09:53:47.049Z,3.50
2017-12-30T09:56:13.374Z,3.50
2017-12-30T09:58:39.722Z,3.50
2017-12-30T10:01:06.054Z,3.30
2017-12-30T10:03:32.409Z,3.10
2017-12-30T10:05:59.502Z,3.00
2017-12-30T10:08:28.389Z,3.00
2017-12-30T10:10:54.786Z,3.10
2017-12-30T10:13:21.924Z,3.30
2017-12-30T10:15:49.006Z,3.20
2017-12-30T10:18:15.386Z,3.20
2017-12-30T10:20:41.742Z,3.20
2017-12-30T10:23:09.847Z,3.00
2017-12-30T10:25:36.206Z,3.00
2017-12-30T10:28:02.630Z,2.90
2017-12-30T10:30:29.095Z,2.80
2017-12-30T10:32:56.181Z,2.70
2017-12-30T10:35:22.542Z,2.70
2017-12-30T10:37:48.923Z,2.70
2017-12-30T10:40:16.085Z,2.70
2017-12-30T10:42:43.462Z,2.70
2017-12-30T10:45:09.867Z,2.80
2017-12-30T10:47:36.945Z,2.70
2017-12-30T10:50:03.294Z,2.70
2017-12-30T10:52:29.630Z,2.70
2017-12-30T10:54:55.966Z,2.70
2017-12-30T10:57:22.310Z,2.80
2017-12-30T10:59:48.716Z,2.80
2017-12-30T11:02:15.160Z,2.90
2017-12-30T11:04:41.530Z,2.90
2017-12-30T11:07:07.863Z,2.90
2017-12-30T11:09:34.224Z,2.90
2017-12-30T11:12:00.615Z,2.70
2017-12-30T11:14:28.094Z,2.80
2017-12-30T11:16:55.162Z,2.80
2017-12-30T11:19:21.518Z,2.80
2017-12-30T11:21:47.825Z,2.80
2017-12-30T11:24:14.190Z,3.00
2017-12-30T11:26:40.585Z,3.10
2017-12-30T11:29:07.694Z,3.20
2017-12-30T11:31:34.037Z,3.20
2017-12-30T11:34:00.470Z,3.20
2017-12-30T11:36:26.794Z,3.20
2017-12-30T11:38:53.154Z,3.30
2017-12-30T11:41:20.229Z,3.10
2017-12-30T11:43:46.572Z,3.10
2017-12-30T11:46:12.906Z,3.10
2017-12-30T11:48:39.530Z,2.90
2017-12-30T11:51:05.966Z,3.00
2017-12-30T11:53:32.643Z,3.00
2017-12-30T11:55:58.989Z,3.00
2017-12-30T11:58:25.327Z,3.10
2017-12-30T12:00:51.666Z,3.00
2017-12-30T12:03:17.997Z,3.10
2017-12-30T12:05:45.066Z,3.00
2017-12-30T12:08:12.117Z,3.10
2017-12-30T12:10:38.481Z,3.10
2017-12-30T12:13:05.543Z,2.90
2017-12-30T12:15:31.969Z,3.00
2017-12-30T12:17:58.314Z,3.00
2017-12-30T12:20:24.654Z,2.90
2017-12-30T12:22:50.998Z,2.90
2017-12-30T12:25:17.313Z,2.90
2017-12-30T12:27:43.637Z,3.00
2017-12-30T12:30:09.996Z,3.00
2017-12-30T12:32:36.341Z,3.00
2017-12-30T12:35:03.425Z,3.00
2017-12-30T12:37:29.746Z,3.00
2017-12-30T12:39:57.126Z,3.10
2017-12-30T12:42:23.475Z,3.10
2017-12-30T12:44:49.798Z,3.20
2017-12-30T12:47:16.155Z,3.30
2017-12-30T12:49:42.498Z,3.50
2017-12-30T12:52:08.822Z,3.60
2017-12-30T12:54:35.389Z,3.70
2017-12-30T12:57:01.889Z,3.70
2017-12-30T12:59:28.221Z,3.70
2017-12-30T13:01:54.650Z,3.90
2017-12-30T13:04:20.961Z,4.00
2017-12-30T13:06:47.290Z,4.10
2017-12-30T13:09:13.630Z,4.00
2017-12-30T13:11:39.961Z,4.10
2017-12-30T13:14:06.278Z,4.10
2017-12-30T13:16:32.599Z,4.20
2017-12-30T13:18:58.914Z,4.10
2017-12-30T13:21:25.246Z,4.20
2017-12-30T13:23:51.603Z,4.30
2017-12-30T13:26:18.674Z,4.40
2017-12-30T13:28:45.002Z,4.40
2017-12-30T13:31:11.338Z,4.50
2017-12-30T13:33:37.670Z,4.60
2017-12-30T13:36:04.003Z,4.60
2017-12-30T13:38:31.458Z,4.60
2017-12-30T13:40:57.890Z,4.80
2017-12-30T13:43:24.214Z,4.80
2017-12-30T13:45:50.543Z,4.90
2017-12-30T13:48:16.876Z,4.90
2017-12-30T13:50:43.201Z,4.90
2017-12-30T13:53:09.525Z,4.90
2017-12-30T13:55:36.577Z,5.00
2017-12-30T13:58:02.902Z,5.00
2017-12-30T14:00:29.261Z,5.10
2017-12-30T14:02:55.578Z,5.20
2017-12-30T14:05:21.937Z,5.30
2017-12-30T14:07:48.245Z,5.40
2017-12-30T14:10:14.662Z,5.50
2017-12-30T14:12:41.021Z,5.50
2017-12-30T14:15:07.362Z,5.60
2017-12-30T14:17:33.706Z,5.70
2017-12-30T14:20:00.247Z,5.70
2017-12-30T14:22:27.495Z,5.70
2017-12-30T14:24:53.817Z,5.70
2017-12-30T14:27:20.155Z,5.80
2017-12-30T14:29:46.518Z,5.80
2017-12-30T14:32:12.834Z,5.90
2017-12-30T14:34:39.909Z,6.00
2017-12-30T14:37:06.225Z,6.00
2017-12-30T14:39:33.316Z,6.20
2017-12-30T14:41:59.658Z,6.20
2017-12-30T14:44:26.012Z,6.30
2017-12-30T14:46:52.335Z,6.30
2017-12-30T14:49:18.654Z,6.30
2017-12-30T14:51:44.996Z,6.50
2017-12-30T14:54:11.418Z,6.50
2017-12-30T14:56:37.739Z,6.50
2017-12-30T14:59:04.058Z,6.50
2017-12-30T15:01:30.366Z,6.60
2017-12-30T15:03:56.685Z,6.60
2017-12-30T15:06:23.797Z,6.80
2017-12-30T15:08:50.127Z,6.80
2017-12-30T15:11:16.466Z,6.80
2017-12-30T15:13:42.775Z,6.90
2017-12-30T15:16:09.129Z,6.90
2017-12-30T15:18:35.509Z,6.90
2017-12-30T15:21:01.895Z,6.90
2017-12-30T15:23:29.109Z,6.90
2017-12-30T15:25:55.449Z,6.90
2017-12-30T15:28:21.995Z,7.00
2017-12-30T15:30:48.334Z,7.00
2017-12-30T15:33:14.642Z,7.20
2017-12-30T15:35:41.134Z,7.30
2017-12-30T15:38:07.486Z,7.30
2017-12-30T15:40:34.558Z,7.40
2017-12-30T15:43:00.909Z,7.40
2017-12-30T15:45:27.221Z,7.30
2017-12-30T15:47:53.561Z,7.30
2017-12-30T15:50:19.902Z,7.30
2017-12-30T15:52:46.481Z,7.30
2017-12-30T15:55:13.566Z,7.30
2017-12-30T15:57:39.903Z,7.30
2017-12-30T16:00:06.331Z,7.40
2017-12-30T16:02:32.701Z,7.50
2017-12-30T16:04:59.066Z,7.50
2017-12-30T16:07:26.259Z,7.50
2017-12-30T16:09:52.585Z,7.50
2017-12-30T16:12:18.972Z,7.50
2017-12-30T16:14:45.361Z,7.50
2017-12-30T16:17:11.702Z,7.60
2017-12-30T16:19:38.022Z,7.60
2017-12-30T16:22:04.395Z,7.60
2017-12-30T16:24:30.735Z,7.70
2017-12-30T16:26:59.281Z,7.70
2017-12-30T16:29:25.662Z,7.70
2017-12-30T16:31:52.780Z,7.60
2017-12-30T16:34:19.156Z,7.60
2017-12-30T16:36:45.598Z,7.60
2017-12-30T16:39:11.955Z,7.70
2017-12-30T16:41:38.319Z,7.80
2017-12-30T16:44:04.705Z,7.90
2017-12-30T16:46:31.797Z,7.90
2017-12-30T16:48:58.902Z,8.00
2017-12-30T16:51:25.280Z,8.00
2017-12-30T16:53:51.609Z,8.00
2017-12-30T16:56:17.944Z,8.00
2017-12-30T16:58:44.274Z,8.00
2017-12-30T17:01:10.606Z,8.00
2017-12-30T17:03:36.970Z,8.10
2017-12-30T17:06:04.064Z,8.30
2017-12-30T17:08:30.435Z,8.30
2017-12-30T17:10:57.586Z,8.40
2017-12-30T17:13:23.938Z,8.30
2017-12-30T17:15:50.323Z,8.30
2017-12-30T17:18:16.678Z,8.30
2017-12-30T17:20:43.028Z,8.30
2017-12-30T17:23:10.174Z,8.20
2017-12-30T17:25:37.274Z,8.20
2017-12-30T17:28:03.649Z,8.20
2017-12-30T17:30:30.721Z,8.20
2017-12-30T17:32:57.114Z,8.10
2017-12-30T17:35:23.437Z,8.20
2017-12-30T17:37:49.811Z,8.20
2017-12-30T17:40:17.174Z,8.30
2017-12-30T17:42:44.565Z,8.30
2017-12-30T17:45:10.986Z,8.30
2017-12-30T17:47:38.091Z,8.40
2017-12-30T17:50:05.220Z,8.40
2017-12-30T17:52:31.603Z,8.30
2017-12-30T17:54:58.000Z,8.40
2017-12-30T17:57:24.426Z,8.50
2017-12-30T17:59:50.872Z,8.50
2017-12-30T18:02:17.991Z,8.60
2017-12-30T18:04:44.338Z,8.60
2017-12-30T18:07:10.699Z,8.60
2017-12-30T18:09:38.829Z,8.50
2017-12-30T18:12:05.166Z,8.50
2017-12-30T18:14:32.566Z,8.50
2017-12-30T18:16:58.898Z,8.60
2017-12-30T18:19:25.990Z,8.70
2017-12-30T18:21:52.334Z,8.70
2017-12-30T18:24:18.690Z,8.60
2017-12-30T18:26:45.059Z,8.60
2017-12-30T18:29:11.426Z,8.60
2017-12-30T18:31:37.753Z,8.60
2017-12-30T18:34:04.082Z,8.70
2017-12-30T18:36:31.438Z,8.60
2017-12-30T18:38:58.839Z,8.60
2017-12-30T18:41:26.033Z,8.60
2017-12-30T18:43:52.392Z,8.60
2017-12-30T18:46:18.713Z,8.60
2017-12-30T18:48:45.035Z,8.70
2017-12-30T18:51:11.414Z,8.70
2017-12-30T18:53:37.730Z,8.60
2017-12-30T18:56:04.045Z,8.70
2017-12-30T18:58:30.391Z,8.70
2017-12-30T19:00:56.736Z,8.60
2017-12-30T19:03:23.130Z,8.70
2017-12-30T19:05:51.236Z,8.70
2017-12-30T19:08:17.594Z,8.70
2017-12-30T19:10:43.919Z,8.80
2017-12-30T19:13:10.978Z,8.90
2017-12-30T19:15:37.298Z,8.90
2017-12-30T19:18:04.369Z,8.80
2017-12-30T19:20:30.709Z,8.80
2017-12-30T19:22:57.046Z,8.80
2017-12-30T19:25:23.425Z,8.90
2017-12-30T19:27:50.046Z,8.90
2017-12-30T19:30:16.390Z,8.90
2017-12-30T19:32:57.742Z,9.00
2017-12-30T19:35:24.065Z,9.10
2017-12-30T19:37:50.401Z,9.10
2017-12-30T19:40:17.845Z,9.10
2017-12-30T19:42:44.202Z,9.10
2017-12-30T19:45:10.522Z,9.10
2017-12-30T19:47:36.882Z,9.10
2017-12-30T19:50:03.219Z,9.10
2017-12-30T19:52:29.565Z,9.10
2017-12-30T19:54:55.928Z,9.20
2017-12-30T19:57:22.318Z,9.20
2017-12-30T19:59:48.693Z,9.00
2017-12-30T20:02:15.094Z,9.00
2017-12-30T20:04:43.806Z,9.00
2017-12-30T20:07:11.221Z,8.90
2017-12-30T20:09:37.557Z,8.90
2017-12-30T20:12:03.905Z,8.80
2017-12-30T20:14:30.241Z,8.80
2017-12-30T20:16:57.332Z,8.90
2017-12-30T20:19:23.649Z,8.90
2017-12-30T20:21:50.755Z,9.00
2017-12-30T20:24:17.086Z,8.90
2017-12-30T20:26:43.421Z,9.00
2017-12-30T20:29:09.775Z,9.00
2017-12-30T20:31:36.885Z,9.00
2017-12-30T20:34:03.225Z,9.10
2017-12-30T20:36:29.593Z,9.00
2017-12-30T20:38:56.929Z,9.00
2017-12-30T20:41:23.251Z,9.00
2017-12-30T20:43:49.771Z,9.00
2017-12-30T20:46:16.159Z,8.90
2017-12-30T20:48:42.496Z,9.00
2017-12-30T20:51:08.840Z,9.00
2017-12-30T20:53:35.153Z,9.00
2017-12-30T20:56:01.474Z,8.90
2017-12-30T20:58:28.557Z,8.80
2017-12-30T21:00:54.894Z,8.80
2017-12-30T21:03:21.237Z,8.80
2017-12-30T21:05:47.603Z,8.70
2017-12-30T21:08:13.957Z,8.70
2017-12-30T21:10:40.291Z,8.70
2017-12-30T21:13:06.622Z,8.60
2017-12-30T21:15:32.957Z,8.60
2017-12-30T21:18:00.193Z,8.60
2017-12-30T21:20:27.261Z,8.60
2017-12-30T21:22:53.601Z,8.60
2017-12-30T21:25:19.918Z,8.60
2017-12-30T21:27:46.225Z,8.60
2017-12-30T21:30:13.289Z,8.70
2017-12-30T21:32:40.381Z,8.70
2017-12-30T21:35:06.715Z,8.60
2017-12-30T21:37:33.045Z,8.70
2017-12-30T21:39:59.414Z,8.70
2017-12-30T21:42:25.742Z,8.60
2017-12-30T21:44:52.086Z,8.60
2017-12-30T21:47:19.157Z,8.60
2017-12-30T21:49:45.477Z,8.60
2017-12-30T21:52:12.531Z,8.60
2017-12-30T21:54:38.857Z,8.50
2017-12-30T21:57:05.942Z,8.60
2017-12-30T21:59:32.290Z,8.50
2017-12-30T22:01:58.636Z,8.50
2017-12-30T22:04:25.984Z,8.60
2017-12-30T22:06:52.850Z,8.60
2017-12-30T22:09:19.947Z,8.60
2017-12-30T22:11:46.294Z,8.50
2017-12-30T22:14:12.607Z,8.60
2017-12-30T22:16:38.966Z,8.60
2017-12-30T22:19:05.302Z,8.60
2017-12-30T22:21:31.651Z,8.50
2017-12-30T22:23:58.063Z,8.50
2017-12-30T22:26:24.385Z,8.60
2017-12-30T22:28:50.713Z,8.60
2017-12-30T22:31:17.055Z,8.60
2017-12-30T22:33:43.417Z,8.70
2017-12-30T22:36:09.810Z,8.70
2017-12-30T22:38:36.177Z,8.70
2017-12-30T22:41:02.518Z,8.70
2017-12-30T22:43:28.857Z,8.60
2017-12-30T22:45:55.934Z,8.70
2017-12-30T22:48:22.322Z,8.70
2017-12-30T22:50:48.689Z,8.70
2017-12-30T22:53:15.031Z,8.70
2017-12-30T22:55:41.450Z,8.70
2017-12-30T22:58:08.521Z,8.70
2017-12-30T23:00:35.746Z,8.70
2017-12-30T23:03:02.865Z,8.70
2017-12-30T23:05:29.222Z,8.70
2017-12-30T23:07:56.305Z,8.70
2017-12-30T23:10:22.634Z,8.70
2017-12-30T23:12:48.974Z,8.70
2017-12-30T23:15:15.596Z,8.70
2017-12-30T23:17:42.030Z,8.70
2017-12-30T23:20:08.354Z,8.70
2017-12-30T23:22:34.721Z,8.80
2017-12-30T23:25:01.078Z,8.70
2017-12-30T23:27:27.421Z,8.70
2017-12-30T23:29:53.823Z,8.80
2017-12-30T23:32:20.158Z,8.70
2017-12-30T23:34:46.518Z,8.90
2017-12-30T23:37:12.882Z,8.80
2017-12-30T23:39:39.207Z,8.80
2017-12-30T23:42:05.598Z,8.80
2017-12-30T23:44:31.965Z,8.80
2017-12-30T23:46:58.346Z,8.80
2017-12-30T23:49:24.702Z,8.80
2017-12-30T23:51:51.022Z,8.80
2017-12-30T23:54:17.386Z,8.90
2017-12-30T23:56:44.458Z,8.90
2017-12-30T23:59:10.850Z,8.90
